x

8452944 - Conimicut Light, Ri (cptr1) Weather Station

11:54 - Sat 1st Aug 2015 All times are EDT. -4 hours from GMT.

  • Wind
    14mph, 15mph gusts
  • Sea Temp 76°f
  • Air Temp 82°f
  • Sea Pressure 1007.7mb
  • 8452944 - Conimicut Light, Ri
  • 8452944 - Conimicut Light, Ri

More Historic Weather Station data

Upgrade to MSW Pro to gain access to the past 30 days of data for over 8000 Wavebouys and Weather Stations around the globe.

Join Pro

Comparision Forecast

View Surf forecast
   
sam. 08/01 11:54 14 15 mph 1007.7mb 76f 82f
11:48 11 14 mph 1007.7mb 76f 82f
11:42 8 11 mph 1007.7mb 76f 81f
11:36 11 16 mph 1007.8mb 77f 82f
11:30 7 9 mph 1007.7mb 77f 82f
11:24 8 13 mph 1007.7mb 77f 82f
11:18 9 13 mph 1007.8mb 77f 82f
11:12 11 14 mph 1007.8mb 77f 82f
11:06 9 13 mph 1007.9mb 77f 82f
11:00 14 17 mph 1007.9mb 77f 82f
10:54 11 16 mph 1007.9mb 77f 82f
10:48 13 17 mph 1008mb 77f 81f
10:42 10 15 mph 1007.9mb 77f 81f
10:36 11 15 mph 1007.9mb 77f 82f
10:30 7 10 mph 1007.9mb 77f 81f
10:24 7 10 mph 1008mb 77f 81f
10:18 9 11 mph 1008mb 77f 80f
10:12 7 9 mph 1007.9mb 77f 80f
10:06 7 9 mph 1007.9mb 77f 80f
10:00 9 11 mph 1008mb 76f 80f
9:54 9 13 mph 1007.9mb 76f 80f
9:48 7 8 mph 1007.9mb 76f 79f
9:42 8 10 mph 1007.9mb 76f 79f
9:36 7 10 mph 1007.8mb 76f 79f
9:30 9 15 mph 1007.9mb 76f 79f
9:24 13 16 mph 1008mb 76f 79f
9:18 13 15 mph 1008.1mb 76f 78f
9:12 11 16 mph 1008.1mb 76f 78f
9:06 14 18 mph 1008.1mb 76f 78f
9:00 9 13 mph 1008mb 76f 78f
8:54 10 13 mph 1008.1mb 76f 78f
8:48 9 11 mph 1007.8mb 76f 78f
8:42 9 11 mph 1007.8mb 76f 78f
8:36 10 13 mph 1007.9mb 76f 77f
8:30 10 14 mph 1007.8mb 76f 77f
8:24 10 13 mph 1007.8mb 76f 77f
8:18 11 14 mph 1007.9mb 76f 77f
8:12 13 15 mph 1007.9mb 76f 77f
8:06 11 14 mph 1007.9mb 76f 77f
8:00 10 15 mph 1007.9mb 76f 77f
7:54 9 13 mph 1007.9mb 76f 76f
7:48 10 13 mph 1007.9mb 76f 76f
7:42 9 10 mph 1007.9mb 76f 76f
7:36 8 9 mph 1007.9mb 76f 75f
7:30 8 10 mph 1007.9mb 76f 75f
7:24 8 10 mph 1007.9mb 76f 75f
7:18 9 13 mph 1008mb 76f 75f
7:12 10 13 mph 1007.9mb 76f 75f
7:06 11 14 mph 1007.9mb 76f 75f
7:00 11 16 mph 1007.9mb 76f 75f
6:54 13 16 mph 1007.9mb 76f 74f
6:48 9 13 mph 1007.9mb 76f 74f
6:42 9 11 mph 1007.9mb 75f 74f
6:36 9 11 mph 1007.9mb 75f 74f
6:30 8 9 mph 1007.8mb 76f 73f
6:24 7 9 mph 1007.8mb 76f 73f
6:18 7 9 mph 1007.8mb 76f 73f
6:12 9 10 mph 1007.8mb 76f 73f
6:06 7 9 mph 1007.8mb 76f 73f
6:00 8 9 mph 1007.7mb 76f 73f
5:54 8 9 mph 1007.7mb 76f 73f
5:48 7 9 mph 1007.7mb 76f 73f
5:42 8 9 mph 1007.8mb 77f 73f
5:36 7 9 mph 1007.8mb 77f 73f
5:30 7 8 mph 1007.8mb 77f 73f
5:24 8 10 mph 1007.7mb 77f 72f
5:18 10
mph
1007.8mb 77f 72f
5:12 8 9 mph 1007.7mb 77f 72f
5:06 8 9 mph 1007.8mb 77f 73f
5:00 8 10 mph 1007.8mb 77f 73f
4:54 10 13 mph 1007.9mb 77f 72f
4:48 11 13 mph 1007.9mb 77f 72f
4:42 10 11 mph 1007.9mb 77f 72f
4:36 9 10 mph 1007.9mb 77f 73f
4:30 9 10 mph 1007.9mb 77f 73f
4:24 9 10 mph 1007.9mb 77f 72f
4:18 9 10 mph 1008mb 77f 72f
4:12 9
mph
1008mb 77f 72f
4:06 7 9 mph 1008.1mb 77f 72f
4:00 7 8 mph 1008.2mb 77f 72f
3:54 7 8 mph 1008.2mb 77f 72f
3:48 7
mph
1008.2mb 77f 72f
3:42 7 9 mph 1008.3mb 77f 72f
3:36 8 9 mph 1008.3mb 77f 72f
3:30 8 9 mph 1008.4mb 77f 73f
3:24 7 8 mph 1008.4mb 77f 72f
3:18 6 7 mph 1008.4mb 77f 71f
3:12 3 5 mph 1008.5mb 77f 71f
3:06 3 5 mph 1008.5mb 77f 71f
3:00 3 6 mph 1008.5mb 77f 72f
2:54 3 5 mph 1008.5mb 78f 72f
2:48  -  mph 1008.6mb 78f 72f
2:42  -  mph 1008.6mb 78f 71f
2:36  -  mph 1008.6mb 78f 71f
2:30  -  2 mph 1008.6mb 78f 71f
2:24  -  1 mph 1008.7mb 78f 71f
2:18  -  2 mph 1008.8mb 78f 72f
2:12 1 2 mph 1008.8mb 78f 72f
2:06  -  1 mph 1008.9mb 78f 72f
2:00  -  1 mph 1009mb 78f 72f
1:54  -  1 mph 1009mb 78f 72f
1:48  -  1 mph 1009.1mb 78f 72f
1:42  -  2 mph 1009.2mb 78f 72f
1:36 2
mph
1009.2mb 78f 72f
1:30 2 3 mph 1009.2mb 78f 72f
1:24 2 6 mph 1009.3mb 78f 73f
1:18 6 7 mph 1009.4mb 78f 74f
1:12 6 7 mph 1009.4mb 78f 74f
1:06 5 7 mph 1009.4mb 78f 74f
1:00 3 5 mph 1009.4mb 78f 74f
12:54 3 6 mph 1009.4mb 78f 73f
12:48 1 2 mph 1009.5mb 78f 73f
12:42  -  2 mph 1009.6mb 78f 73f
12:36 2
mph
1009.6mb 78f 73f
12:30 2 5 mph 1009.6mb 78f 72f
12:24 3 5 mph 1009.7mb 78f 73f
12:18 5 6 mph 1009.7mb 78f 73f
12:12 6 7 mph 1009.7mb 78f 74f
12:06 7
mph
1009.8mb 78f 74f
12:00 7
mph
1009.7mb 78f 74f
ven. 07/31 11:54 6 7 mph 1009.7mb 78f 74f
11:48 6 8 mph 1009.7mb 78f 74f
11:42 7 8 mph 1009.7mb 78f 74f
11:36 7
mph
1009.7mb 77f 74f
11:30 7 9 mph 1009.7mb 77f 74f
11:24 8 10 mph 1009.7mb 77f 74f
11:18 8 9 mph 1009.7mb 77f 75f
11:12 9
mph
1009.6mb 77f 75f
11:06 7 8 mph 1009.6mb 77f 75f
11:00 6 7 mph 1009.5mb 77f 75f
10:54 5 6 mph 1009.5mb 77f 76f
10:48 5 6 mph 1009.5mb 78f 76f
10:42 5
mph
1009.5mb 78f 76f
10:36 5 6 mph 1009.5mb 78f 76f
10:30 6 7 mph 1009.5mb 78f 76f
10:24 6 7 mph 1009.5mb 78f 76f
10:18 6
mph
1009.5mb 78f 77f
10:12 5 6 mph 1009.5mb 78f 77f
10:06 5 6 mph 1009.4mb 78f 76f
10:00 2 3 mph 1009.4mb 78f 77f
9:54 2 3 mph 1009.3mb 78f 76f
9:48 3 6 mph 1009.3mb 77f 77f
9:42 6
mph
1009.2mb 77f 78f
9:36 6
mph
1009.2mb 77f 78f
9:30 6 7 mph 1009.2mb 77f 78f
9:24 6
mph
1009.2mb 77f 78f
9:18 6
mph
1009.1mb 77f 79f
9:12 6
mph
1009mb 77f 79f
9:06 5 6 mph 1009mb 77f 79f
9:00 5 6 mph 1008.9mb 77f 79f
8:54 6 8 mph 1008.9mb 77f 80f
8:48 7 9 mph 1008.7mb 77f 80f
8:42 8 9 mph 1008.6mb 77f 80f
8:36 7 8 mph 1008.6mb 76f 80f
8:30 7 9 mph 1008.5mb 76f 80f
8:24 8 9 mph 1008.4mb 76f 80f
8:18 8 11 mph 1008.4mb 76f 81f
8:12 9 10 mph 1008.4mb 76f 81f
8:06 9 11 mph 1008.4mb 76f 81f
8:00 11 14 mph 1008.3mb 76f 81f
7:54 13 14 mph 1008.2mb 76f 82f
7:48 11 13 mph 1008.2mb 76f 82f
7:42 11 14 mph 1008.2mb 75f 82f
7:36 13 16 mph 1008.1mb 75f 82f
7:00 14 15 mph 1008mb 76f 83f
6:54 13 15 mph 1008mb 76f 83f
6:48 11 16 mph 1007.9mb 76f 83f
6:42 14 17 mph 1007.9mb 76f 84f
6:36 14 17 mph 1007.9mb 77f 83f
6:30 13 20 mph 1007.8mb 77f 83f
6:24 13 16 mph 1007.8mb 77f 84f
6:18 10 16 mph 1007.8mb 77f 83f
6:12 15 20 mph 1007.9mb 77f 84f
6:06 13 16 mph 1007.9mb 77f 84f
6:00 13 17 mph 1008mb 78f 84f
5:54 14 17 mph 1007.9mb 78f 84f
5:48 15 18 mph 1007.8mb 78f 84f
5:42 11 16 mph 1007.8mb 78f 84f
5:36 14 17 mph 1007.8mb 78f 84f
5:30 16 21 mph 1007.9mb 78f 84f
5:24 17 21 mph 1007.8mb 78f 84f
5:18 13 18 mph 1008mb 78f 84f
5:12 17 20 mph 1007.9mb 78f 85f
5:06 16 21 mph 1007.9mb 78f 84f
5:00 20 22 mph 1008mb 79f 84f
4:54 18 20 mph 1007.9mb 79f 84f
4:48 11 21 mph 1008mb 79f 84f
4:42 17 22 mph 1008mb 79f 84f
4:36 13 20 mph 1008.1mb 79f 84f
4:30 16 22 mph 1008.3mb 79f 84f
4:24 16 22 mph 1008.1mb 79f 84f
4:18 18 23 mph 1008.1mb 79f 85f
4:12 16 22 mph 1008.2mb 79f 85f
4:06 16 21 mph 1008.2mb 79f 84f
4:00 20 24 mph 1008.1mb 78f 84f
3:54 18 21 mph 1007.9mb 77f 84f
3:48 15 17 mph 1007.9mb 75f 84f
3:42 14 23 mph 1008mb 75f 84f
3:36 20 24 mph 1008.1mb 75f 84f
3:30 18 25 mph 1008.1mb 76f 84f
3:24 20 23 mph 1008mb 76f 84f
3:18 21 24 mph 1008.2mb 77f 84f
3:12 15 24 mph 1008.3mb 77f 84f
3:06 13 20 mph 1008.2mb 77f 83f
3:00 14 22 mph 1008.3mb 78f 83f
2:54 15 20 mph 1008.4mb 78f 84f
2:48 14 20 mph 1008.4mb 78f 83f
2:42 15 20 mph 1008.5mb 78f 83f
2:36 14 18 mph 1008.6mb 78f 83f
2:30 13 20 mph 1008.6mb 78f 83f
2:24 18 22 mph 1008.5mb 78f 83f
2:18 13 20 mph 1008.6mb 78f 83f
2:12 18 22 mph 1008.5mb 78f 83f
2:06 14 22 mph 1008.7mb 78f 83f
2:00 16 21 mph 1008.9mb 78f 83f
1:54 16 22 mph 1008.8mb 78f 83f
1:48 15 22 mph 1008.9mb 78f 83f
1:42 15 20 mph 1009mb 78f 83f
1:36 14 22 mph 1008.9mb 78f 83f
1:30 20 23 mph 1008.8mb 78f 82f
1:24 18 25 mph 1008.9mb 78f 83f
1:18 20 25 mph 1009.3mb 78f 83f
1:12 17 23 mph 1009.2mb 78f 83f
1:06 16 22 mph 1009.3mb 78f 82f
1:00 16 20 mph 1009.3mb 78f 82f
12:54 14 17 mph 1009.2mb 78f 82f
12:48 13 18 mph 1009.3mb 78f 82f
12:42 15 20 mph 1009.5mb 78f 82f
12:36 10 16 mph 1009.4mb 78f 82f
12:30 13 18 mph 1009.5mb 78f 82f
12:24 14 21 mph 1009.5mb 78f 82f
12:18 13 17 mph 1009.5mb 78f 82f
12:12 14 18 mph 1009.6mb 78f 82f
12:06 14 20 mph 1009.7mb 78f 81f
12:00 15 17 mph 1009.8mb 78f 81f
11:54 13 17 mph 1009.7mb 78f 81f
11:48 15 20 mph 1009.8mb 78f 81f
11:42 14 18 mph 1009.9mb 78f 81f
11:36 11 15 mph 1009.8mb 78f 81f
11:30 14 16 mph 1009.8mb 78f 80f
11:24 9 15 mph 1009.8mb 77f 81f
11:18 11 15 mph 1010mb 77f 81f
11:12 11 14 mph 1009.8mb 77f 81f
11:06 10 13 mph 1009.9mb 77f 80f
11:00 11 14 mph 1009.9mb 77f 80f
10:54 10 14 mph 1009.9mb 77f 80f
10:48 11 13 mph 1009.9mb 77f 79f
10:42 9 13 mph 1009.9mb 77f 80f
10:36 9 11 mph 1009.9mb 77f 79f
10:30 9 14 mph 1009.9mb 77f 79f
10:24 9 13 mph 1010mb 77f 79f
10:18 8 11 mph 1009.9mb 77f 79f
10:12 8 9 mph 1009.8mb 77f 78f
10:06 8 11 mph 1009.8mb 77f 78f
10:00 8 9 mph 1009.8mb 77f 78f
9:54 8 11 mph 1009.8mb 77f 78f
9:48 10 13 mph 1009.9mb 77f 78f
9:42 10 13 mph 1009.9mb 77f 78f
9:36 9 11 mph 1009.8mb 77f 77f
9:30 9 11 mph 1009.9mb 77f 77f
9:24 9 11 mph 1010mb 77f 77f
9:18 9 11 mph 1010mb 77f 77f
9:12 10 11 mph 1009.9mb 77f 77f
9:06 10 11 mph 1009.9mb 77f 76f
9:00 9 11 mph 1009.9mb 77f 76f
8:54 10 11 mph 1009.9mb 77f 76f
8:48 9 13 mph 1009.9mb 77f 76f
8:42 9 11 mph 1009.9mb 77f 76f
8:36 11 13 mph 1010mb 76f 75f
8:30 11 13 mph 1010mb 76f 75f
8:24 13 15 mph 1010.1mb 76f 75f
8:18 13 15 mph 1010.1mb 76f 75f
8:12 13 15 mph 1010.1mb 76f 75f
8:06 11 15 mph 1010.1mb 76f 75f
8:00 11 13 mph 1010.1mb 76f 74f
7:54 10 14 mph 1010.1mb 76f 74f
7:48 11 14 mph 1010mb 76f 74f
7:42 11 14 mph 1010mb 76f 74f
7:36 11 14 mph 1010mb 76f 74f
7:30 13 15 mph 1010mb 76f 74f
7:24 14 16 mph 1010mb 76f 74f
7:18 13 14 mph 1009.9mb 77f 74f
7:12 11 15 mph 1009.9mb 77f 74f
7:06 13 14 mph 1009.8mb 77f 73f
7:00 10 11 mph 1009.7mb 77f 73f
6:54 10 11 mph 1009.7mb 77f 73f
6:48 8 10 mph 1009.6mb 77f 73f
6:42 7 9 mph 1009.6mb 77f 73f
6:36 6 7 mph 1009.5mb 77f 72f
6:30 2 5 mph 1009.5mb 77f 72f
6:24 3 5 mph 1009.4mb 77f 72f
6:18 3 5 mph 1009.3mb 77f 72f
6:12 3 6 mph 1009.3mb 77f 72f
6:06 3 6 mph 1009.2mb 77f 72f
6:00 5 6 mph 1009.2mb 77f 72f
5:54 2 6 mph 1009.2mb 77f 72f
5:48 3 5 mph 1009.2mb 77f 72f
5:42 3 6 mph 1009.2mb 77f 72f
5:36 3 6 mph 1009.1mb 77f 72f
5:30 2 5 mph 1009.1mb 77f 72f
5:24 5 6 mph 1009.1mb 77f 72f
5:18 5 6 mph 1009.1mb 77f 72f
5:12 3 6 mph 1009mb 77f 73f
5:06 5 6 mph 1009mb 77f 73f
5:00 3 5 mph 1008.9mb 77f 73f
4:54 3 6 mph 1008.9mb 77f 73f
4:48 5 6 mph 1008.8mb 77f 73f
4:42 3 6 mph 1008.8mb 77f 73f
4:36 5 6 mph 1008.7mb 77f 73f
4:30 5 7 mph 1008.7mb 77f 73f
4:24 6 8 mph 1008.7mb 77f 73f
4:18 5 7 mph 1008.7mb 77f 73f
4:12 5 7 mph 1008.7mb 77f 73f
4:06 6 8 mph 1008.7mb 77f 73f
4:00 5 7 mph 1008.7mb 77f 73f
3:54 5 7 mph 1008.7mb 77f 74f
3:48 5 8 mph 1008.7mb 77f 74f
3:42 6 7 mph 1008.6mb 77f 74f
3:36 3 6 mph 1008.6mb 77f 74f
3:30 3 5 mph 1008.6mb 77f 74f
3:24 3 6 mph 1008.7mb 77f 74f
3:18 2 6 mph 1008.7mb 77f 74f
3:12 6 7 mph 1008.7mb 77f 74f
3:06 5 6 mph 1008.7mb 77f 74f
3:00 3 6 mph 1008.7mb 77f 74f
2:54 3 5 mph 1008.7mb 77f 74f
2:48 5 7 mph 1008.8mb 77f 74f
2:42 3 6 mph 1008.8mb 77f 74f
2:36 3 5 mph 1008.8mb 77f 74f
2:30 3 6 mph 1008.9mb 77f 74f
2:24 3 5 mph 1009.1mb 77f 74f
2:18 3 5 mph 1009.1mb 77f 74f
2:12 3 6 mph 1009.1mb 77f 74f
2:06 5 6 mph 1009.1mb 77f 74f
2:00 3 6 mph 1009.2mb 77f 74f
1:54 5 6 mph 1009.3mb 77f 74f
1:48 5 6 mph 1009.3mb 77f 74f
1:42 3 5 mph 1009.3mb 77f 75f
1:36 5 6 mph 1009.3mb 77f 75f
1:30 5 6 mph 1009.4mb 77f 75f
1:24 5 6 mph 1009.3mb 77f 75f
1:18 5 8 mph 1009.3mb 77f 75f
1:12 7 9 mph 1009.4mb 77f 75f
1:06 8 9 mph 1009.3mb 77f 75f
1:00 8 9 mph 1009.3mb 77f 75f
12:54 9 10 mph 1009.3mb 77f 75f
12:48 8 9 mph 1009.4mb 77f 75f
12:42 9 10 mph 1009.5mb 77f 75f
12:36 9
mph
1009.5mb 77f 75f
12:30 8
mph
1009.5mb 77f 75f
12:24 7
mph
1009.5mb 77f 75f
12:18 6
mph
1009.3mb 77f 75f
12:12 6 8 mph 1009.2mb 77f 75f
12:06 6 7 mph 1009.3mb 77f 75f
12:00 6
mph
1009.4mb 77f 75f
jeu. 07/30 11:54 3
mph
1009.4mb 77f 75f
11:48 5 6 mph 1009.5mb 77f 75f
11:42 6 7 mph 1009.7mb 77f 75f
11:36 3 6 mph 1009.7mb 77f 75f
11:30 5 6 mph 1009.7mb 77f 75f
11:24 5 7 mph 1009.6mb 77f 75f
11:18 7 8 mph 1009.5mb 77f 75f
11:12 6 8 mph 1009.4mb 77f 75f
11:06 7 8 mph 1009.5mb 77f 75f
11:00 7 10 mph 1009.6mb 77f 74f
10:54 8 9 mph 1009.6mb 77f 74f
10:48 8 10 mph 1009.6mb 77f 74f
10:42 10 13 mph 1009.8mb 77f 74f
10:36 10 13 mph 1009.9mb 77f 74f
10:30 10 11 mph 1009.9mb 77f 74f
10:24 10 14 mph 1009.9mb 77f 74f
10:18 11 15 mph 1010mb 77f 74f
10:12 14 17 mph 1009.9mb 77f 74f
10:06 15 21 mph 1009.8mb 77f 74f
10:00 17 18 mph 1009.8mb 77f 74f
9:54 16 18 mph 1009.8mb 77f 74f
9:48 15 17 mph 1010mb 77f 74f
9:42 15 17 mph 1009.8mb 77f 74f
9:36 18 21 mph 1009.8mb 77f 74f
9:30 16 20 mph 1009.8mb 77f 74f
9:24 20 22 mph 1009.8mb 77f 74f
9:18 18 21 mph 1009.7mb 77f 74f
9:12 20 21 mph 1009.5mb 77f 74f
9:06 17 21 mph 1009.4mb 77f 75f
9:00 21 22 mph 1009.4mb 77f 75f
8:54 21 23 mph 1009.3mb 77f 74f
8:48 20 21 mph 1009.4mb 77f 74f
8:42 17 21 mph 1009.3mb 77f 74f
8:36 20 21 mph 1009.1mb 77f 74f
8:30 17 18 mph 1009.2mb 77f 74f
8:24 15 17 mph 1009.5mb 77f 74f
8:18 14 18 mph 1009.7mb 77f 74f
8:12 16 21 mph 1009.9mb 77f 75f
8:06 18 26 mph 1009.9mb 77f 74f
8:00 20 28 mph 1009.9mb 77f 75f
7:54 21 26 mph 1010.1mb 77f 75f
7:48 17 22 mph 1010mb 77f 76f
7:42 15 21 mph 1010mb 77f 76f
7:36 18 21 mph 1010.2mb 77f 76f
7:30 17 21 mph 1010.2mb 77f 76f
7:24 16 22 mph 1010.2mb 77f 76f
7:18 15 17 mph 1010.2mb 77f 76f
7:12 16 22 mph 1010.1mb 77f 76f
7:06 17 21 mph 1010.1mb 77f 76f
7:00 21 25 mph 1010mb 77f 77f
6:54 15 20 mph 1009.9mb 77f 77f
6:48 16 22 mph 1009.8mb 77f 77f
6:42 18 21 mph 1009.7mb 77f 77f
6:36 17 21 mph 1009.6mb 77f 77f
6:30 17 21 mph 1009.6mb 77f 77f
6:24 20 22 mph 1009.6mb 77f 77f
6:18 18 22 mph 1009.4mb 77f 78f
6:12 17 22 mph 1009.2mb 77f 78f
6:06 18 24 mph 1009.2mb 77f 78f
6:00 21 24 mph 1009.3mb 77f 78f
5:54 21 25 mph 1009.4mb 77f 78f
5:48 22 25 mph 1009.3mb 77f 78f
5:42 23 25 mph 1009.3mb 77f 78f
5:36 22 25 mph 1009.3mb 77f 78f
5:30 23 25 mph 1009.2mb 77f 78f
5:24 23 26 mph 1009.3mb 77f 79f
5:18 22 26 mph 1009.3mb 77f 78f
5:12 21 24 mph 1009.4mb 77f 78f
5:06 21 24 mph 1009.3mb 78f 78f
5:00 22 24 mph 1009.2mb 78f 78f
4:54 22 25 mph 1009.1mb 78f 78f
4:48 23 24 mph 1009.1mb 78f 78f
4:42 22 26 mph 1009.1mb 78f 79f
4:36 22 26 mph 1009.1mb 78f 78f
4:30 23 25 mph 1009mb 78f 79f
4:24 23 28 mph 1009.1mb 78f 79f
4:18 21 25 mph 1009.3mb 78f 79f
4:12 23 25 mph 1009.2mb 78f 79f
4:06 23 26 mph 1009.4mb 78f 79f
4:00 22 24 mph 1009.4mb 78f 79f
3:54 21 26 mph 1009.4mb 78f 79f
3:48 24 26 mph 1009.4mb 77f 80f
3:42 25 29 mph 1009.5mb 77f 80f
3:36 23 26 mph 1009.5mb 77f 80f
3:30 23 26 mph 1009.5mb 77f 80f
3:24 23 30 mph 1009.7mb 77f 80f
3:18 22 28 mph 1009.7mb 77f 81f
3:12 20 23 mph 1009.9mb 77f 80f
3:06 22 25 mph 1010mb 77f 81f
3:00 22 24 mph 1010mb 76f 80f
2:54 21 23 mph 1010.1mb 76f 80f
2:48 22 24 mph 1010.1mb 76f 80f
2:42 20 26 mph 1010.1mb 76f 80f
2:36 22 26 mph 1010.3mb 76f 80f
2:30 22 24 mph 1010.3mb 76f 80f
2:24 20 22 mph 1010.4mb 76f 80f
2:18 20 22 mph 1010.5mb 77f 80f
2:12 21 24 mph 1010.6mb 77f 81f
2:06 21 24 mph 1010.6mb 77f 80f
2:00 18 22 mph 1010.7mb 77f 81f
1:54 18 23 mph 1010.8mb 77f 80f
1:48 21 28 mph 1010.8mb 77f 82f
1:42 21 23 mph 1010.7mb 77f 80f
1:36 22 24 mph 1010.8mb 77f 80f
1:30 21 23 mph 1010.8mb 77f 80f
1:24 22 23 mph 1010.8mb 77f 80f
1:18 20 23 mph 1011mb 77f 80f
1:12 18 23 mph 1011.1mb 77f 79f
1:06 21 22 mph 1011mb 77f 79f
1:00 18 23 mph 1011.1mb 77f 79f
12:54 18 22 mph 1011.2mb 77f 79f
12:48 21
mph
1011.2mb 77f 79f
12:42 17 22 mph 1011.3mb 77f 80f
12:36 16 23 mph 1011.3mb 77f 80f
12:30 20 22 mph 1011.3mb 77f 81f
12:24 20 22 mph 1011.3mb 77f 80f
12:18 17 21 mph 1011.3mb 77f 79f
12:12 18 21 mph 1011.4mb 77f 79f
12:06 18 20 mph 1011.4mb 77f 79f
12:00 18 21 mph 1011.4mb 77f 79f
11:54 18 22 mph 1011.5mb 76f 79f
11:48 21 22 mph 1011.5mb 76f 79f
11:42 18 21 mph 1011.6mb 76f 79f
11:30 18
mph
1011.6mb 76f 79f
11:24 18 21 mph 1011.5mb 76f 79f
11:18 18 20 mph 1011.6mb 76f 79f
11:12 17 18 mph 1011.7mb 76f 79f
11:06 16 18 mph 1011.7mb 76f 79f
11:00 15 16 mph 1011.7mb 76f 78f
10:54 14 15 mph 1011.8mb 76f 78f
10:48 14 15 mph - - -
10:42 15 16 mph 1011.8mb 76f 79f
10:36 16 17 mph 1011.8mb 76f 78f
10:30 14 16 mph 1011.8mb 76f 78f
10:24 15 17 mph 1011.7mb 76f 78f
10:18 16 17 mph 1011.7mb 76f 78f
10:12 14 16 mph 1011.9mb 76f 77f
10:06 8 11 mph 1011.9mb 77f 78f
10:00 13 15 mph 1011.9mb 77f 78f
9:54 14 15 mph 1011.9mb 77f 78f
9:48 15 16 mph 1012mb 77f 78f
9:42 14 16 mph 1012mb 77f 78f
9:36 15 17 mph 1012mb 77f 78f
9:30 16
mph
1012.1mb 77f 78f
9:24 16 17 mph 1012.2mb 77f 77f
9:18 15 16 mph 1012.3mb 77f 78f
9:12 14 17 mph 1012.4mb 77f 77f
9:06 16
mph
1012.5mb 77f 77f
9:00 14 15 mph 1012.5mb 77f 77f
8:54 13 14 mph 1012.5mb 77f 78f
8:48  -  mph - - 78f
8:42  -  mph - - 78f
8:36  -  mph - - 77f
8:30  -  mph - - 77f
8:24  -  mph - - 76f
8:18  -  mph - - 76f
8:12  -  mph - - 76f
8:06  -  mph - - 76f
8:00  -  mph - - 76f
7:54  -  mph - - 75f
7:48  -  mph - - 75f
7:30  -  mph - - 75f
7:24  -  mph - - 75f
7:18  -  mph - - 75f
7:12  -  mph - - 75f
7:06  -  mph - - 75f
7:00  -  mph - - 74f
6:54  -  mph - - 74f
6:48  -  mph - - 74f
6:42  -  mph - - 74f
6:36  -  mph - - 74f
6:30  -  mph - - 74f
6:24  -  mph - - 75f
6:18  -  mph - - 74f
6:12  -  mph - - 74f
6:06  -  mph - - 74f
6:00  -  mph - - 74f
5:54  -  mph - - 74f
5:48  -  mph 1012.4mb 76f 74f
5:42  -  mph 1012.4mb 76f 74f
5:36  -  mph 1012.3mb 76f 74f
5:30  -  mph 1012.3mb 76f 74f
5:24  -  mph 1012.3mb 76f 75f
5:18  -  mph - - 74f
5:12  -  mph - - 75f
5:06  -  mph - - 74f
5:00  -  mph - 77f 75f
4:54  -  mph - 77f 75f
4:48  -  mph - 77f 75f
4:42  -  mph - 77f 75f
4:36  -  mph - 77f 75f
4:30  -  mph - - 75f
4:24  -  mph - - 75f
4:18  -  mph - - 75f
4:12  -  mph - - 75f
4:06  -  mph - - 75f
4:00  -  mph 1012.4mb - 75f
3:54  -  mph 1012.3mb - 75f
3:48  -  mph - - 75f
3:42  -  mph - - 75f
3:36  -  mph - - 75f
3:30  -  mph - 77f 75f
3:24  -  mph - 77f 75f
3:18  -  mph - 78f 75f
3:12  -  mph - 78f 75f
3:06  -  mph - 78f 76f
3:00  -  mph - 78f 76f
2:54  -  mph - 78f 76f
2:48  -  mph - - 76f
2:42  -  mph - - 76f
2:36  -  mph - - 76f
2:30  -  mph 1012.6mb 78f 76f
2:24  -  mph 1012.6mb 78f 76f
2:18  -  mph 1012.6mb 78f 76f
2:12  -  mph 1012.7mb 78f 76f
2:06  -  mph 1012.7mb 78f 77f
2:00  -  mph 1012.8mb 78f 77f
1:54  -  mph 1012.7mb 78f 77f
1:48  -  mph 1012.7mb 78f 77f
1:18  -  mph - - 77f
1:12  -  mph - - 77f
1:06  -  mph - - 77f
1:00  -  mph - - 77f
12:54  -  mph - - 78f
12:48  -  mph - - 78f
12:42  -  mph - - 78f
12:36  -  mph - - 78f
12:30  -  mph - - 78f
12:24  -  mph - - 78f
12:18  -  mph - - 78f
12:12  -  mph - - 78f
12:06  -  mph - - 79f
12:00  -  mph - - 79f
mer. 07/29 11:54  -  mph - - 79f
11:48  -  mph - - 79f
11:42  -  mph - - 79f
11:36  -  mph - - 79f
11:30  -  mph - - 79f
11:24  -  mph - - 79f
11:18  -  mph - - 79f
11:12  -  mph - - 78f
11:06  -  mph - - 78f
11:00  -  mph - - 78f
10:54  -  mph - - 78f
10:48  -  mph - - 77f
10:42  -  mph - - 76f
10:36  -  mph - - 76f
10:30  -  mph - - 76f
10:24  -  mph - - 76f
10:18  -  mph - - 77f
10:12  -  mph - - 77f
10:06  -  mph - - 78f
10:00  -  mph - 77f 77f
9:54  -  mph - 77f 77f
9:48 9 10 mph 1013mb 77f 78f
9:42 8 9 mph 1013mb 77f 78f
9:36 8 9 mph 1013mb 77f 78f
9:30  -  mph - 77f 78f
9:24  -  mph - 77f 77f
9:18  -  mph - - 77f
9:12  -  mph - - 77f
9:06  -  mph - - 78f
9:00  -  mph - - 78f
8:54  -  mph - - 79f
8:48 6
mph
1012.8mb 77f 78f
8:42 6 8 mph 1012.9mb 77f 80f
8:36 7 8 mph 1012.8mb 77f 81f
8:30  -  mph 1012.8mb 77f 81f
8:24  -  mph 1012.8mb 77f 82f
8:18  -  mph 1012.8mb 77f 82f
8:12  -  mph 1012.7mb 77f 81f
8:06  -  mph 1012.7mb 77f 81f
8:00  -  mph - 77f 82f
7:54  -  mph - 76f 82f
7:48  -  mph - 76f 82f
7:42  -  mph - 76f 83f
7:36  -  mph - 76f 83f
7:30  -  mph - 76f 83f
7:24  -  mph - 76f 84f
7:18  -  mph - 76f 84f
7:12  -  mph - 76f 84f
7:06  -  mph - 76f 84f
7:00 13 15 mph 1012.5mb 76f 85f
6:54 13 15 mph 1012.3mb 76f 85f
6:48 14 20 mph 1012.3mb 76f 85f
6:42 11 14 mph 1012.3mb 76f 85f
6:36 13 16 mph 1012.3mb 76f 85f
6:30  -  mph - 76f 85f
6:24  -  mph - 76f 84f
6:18  -  mph - - 85f
6:12  -  mph - - 85f
6:06  -  mph - - 85f
6:00  -  mph - 76f 85f
5:54  -  mph - 76f 84f
5:48  -  mph - 75f 84f
5:42  -  mph - 75f 83f
5:36  -  mph - 76f 82f
5:30  -  mph - 76f 81f
5:24  -  mph - 76f 81f
5:18  -  mph - 76f 81f
5:12  -  mph - 76f 81f
5:06  -  mph - 76f 81f
5:00  -  mph 1012.3mb 76f 81f
4:54  -  mph 1012.3mb 76f 81f
4:48  -  mph 1012.3mb 75f 82f
4:42  -  mph 1012.3mb 75f 82f
4:36  -  mph 1012.4mb 75f 81f
4:30  -  mph 1012.5mb 75f 82f
4:24  -  mph 1012.5mb 75f 82f
4:18  -  mph - - 81f
4:12  -  mph - - 82f
4:06  -  mph - - 81f
4:00  -  mph - - 81f
3:54  -  mph - - 82f
3:48  -  mph - - 82f
3:42  -  mph - - 82f
3:36  -  mph - - 83f
3:30  -  mph - - 82f
3:24  -  mph - - 82f
3:18  -  mph - - 82f
3:12  -  mph - - 82f
3:06  -  mph - - 82f
3:00  -  mph - - 82f
2:54  -  mph - - 83f
2:48  -  mph - - 82f
2:42  -  mph - - 82f
2:36  -  mph - - 83f
2:30  -  mph - - 82f
2:24  -  mph - - 82f
2:18  -  mph - - 82f
2:12  -  mph - - 82f
2:06  -  mph - - 81f
2:00  -  mph - - 82f
1:54  -  mph - - 82f
1:48  -  mph - - 82f
1:42  -  mph - - 82f
1:36  -  mph - - 82f
1:30  -  mph - - 82f
1:24  -  mph - - 82f
1:18 11 13 mph 1013.7mb 76f 81f
1:12 11 13 mph 1013.7mb 76f 81f
1:06 11 14 mph 1013.7mb 76f 80f
1:00 11 14 mph 1013.8mb 76f 80f
12:54 11 13 mph 1013.8mb 76f 80f
12:48 8 10 mph 1013.9mb 76f 79f
11:54 10 11 mph 1014.2mb 76f 79f
11:48 10
mph
1014.3mb 76f 79f
11:42 9 10 mph 1014.4mb 76f 79f
11:36 9
mph
1014.4mb 76f 78f
11:30 8 9 mph 1014.4mb 76f 78f
11:24 8 9 mph 1014.5mb 76f 78f
11:18 8 9 mph 1014.5mb 76f 78f
11:12 9
mph
1014.6mb 76f 78f
11:06 8
mph
1014.6mb 76f 78f
11:00 7 8 mph 1014.6mb 76f 78f
10:54 7
mph
1014.7mb 76f 77f
10:48 6
mph
1014.8mb 76f 78f
10:42 6
mph
1014.8mb 76f 77f
10:36 6
mph
1014.9mb 76f 77f
10:30 6
mph
1014.9mb 76f 77f
10:24 5
mph
1014.9mb 76f 77f
10:18 5
mph
1014.8mb 75f 76f
10:12 5
mph
1014.8mb 75f 76f
10:06 5
mph
1014.7mb 75f 76f
10:00 5 6 mph 1014.7mb 75f 76f
9:54 5 6 mph 1014.7mb 75f 75f
9:48 5
mph
1014.7mb 75f 75f
9:42 5
mph
1014.7mb 75f 75f
9:36 3
mph
1014.7mb 75f 75f
9:30 3
mph
1014.7mb 75f 74f
9:24 2 3 mph 1014.6mb 75f 74f
9:18 2
mph
1014.6mb 75f 74f
9:12 2
mph
1014.7mb 75f 74f
9:06 2
mph
1014.7mb 75f 74f
9:00 2
mph
1014.7mb 75f 73f
8:36 1 2 mph 1014.6mb 75f 73f
8:30 2
mph
1014.6mb 75f 73f
8:24 2
mph
1014.6mb 75f 73f
8:18 1 2 mph 1014.6mb 75f 73f
8:12  -  mph 1014.7mb 75f 73f
8:06  -  1 mph 1014.7mb 75f 73f
8:00  -  1 mph 1014.7mb 75f 73f
7:54  -  1 mph 1014.7mb 75f 73f
7:48  -  1 mph 1014.7mb 75f 73f
7:42  -  1 mph 1014.7mb 75f 73f
7:36 1 2 mph 1014.7mb 75f 73f
7:30 2
mph
1014.7mb 75f 73f
7:24 2
mph
1014.7mb 75f 73f
7:18 2
mph
1014.6mb 75f 73f
7:12 1 2 mph 1014.6mb 75f 73f
7:06 1 2 mph 1014.6mb 75f 73f
7:00 1 2 mph 1014.7mb 74f 72f
6:54 2 3 mph 1014.6mb 74f 72f
6:48 3
mph
1014.6mb 74f 71f
6:42 2
mph
1014.6mb 74f 71f
6:36 1 2 mph 1014.6mb 74f 71f
6:30  -  mph 1014.5mb 74f 72f
6:24  -  1 mph 1014.5mb 74f 72f
6:18  -  2 mph 1014.4mb 74f 71f
6:12 2 3 mph 1014.4mb 75f 71f
6:06 2 3 mph 1014.4mb 75f 71f
6:00 2
mph
1014.4mb 75f 71f
5:54 1 2 mph 1014.3mb 75f 71f
5:48 1 2 mph 1014.2mb 75f 71f
5:42 1 2 mph 1014.1mb 75f 71f
5:36 1 2 mph 1014mb 75f 71f
5:30 2
mph
1014.1mb 75f 72f
5:24 1 2 mph 1014mb 75f 71f
5:18 2 3 mph 1014mb 75f 72f
5:12 2 3 mph 1014mb 75f 71f
5:06 2 3 mph 1014mb 75f 71f
5:00 2
mph
1014mb 75f 72f
4:54 1 2 mph 1013.8mb 75f 72f
4:48 1 2 mph 1013.8mb 75f 72f
4:42 1 2 mph 1013.8mb 75f 72f
4:36 2
mph
1013.8mb 75f 72f
4:30 2
mph
1013.7mb 75f 72f
4:24 2 3 mph 1013.7mb 75f 72f
4:18 3
mph
1013.8mb 75f 72f
4:12 3
mph
1013.8mb 75f 72f
4:06 2 3 mph 1013.8mb 75f 72f
4:00 2 3 mph 1013.7mb 75f 72f
3:54 2 5 mph 1013.6mb 75f 72f
3:48 3 5 mph 1013.7mb 75f 72f
3:42 3 6 mph 1013.7mb 75f 72f
3:36 5 6 mph 1013.7mb 75f 72f
3:30 3 5 mph 1013.7mb 75f 72f
3:24 3 5 mph 1013.7mb 76f 72f
3:18 5 6 mph 1013.7mb 76f 72f
3:12 5
mph
1013.7mb 76f 72f
3:06 5 6 mph 1013.7mb 75f 73f
3:00 6
mph
1013.8mb 75f 72f
2:54 5
mph
1013.8mb 75f 72f
2:48 3 5 mph - 75f 73f
2:42 3
mph
- 75f 72f
2:36 3 5 mph - 75f 72f
2:30 5 6 mph 1013.8mb 75f 72f
2:24 6 8 mph 1013.8mb 75f 73f
2:18 7 8 mph 1013.9mb 75f 73f
2:12 8
mph
1014mb 75f 73f
2:06 5 6 mph 1014mb 75f 73f
2:00 5
mph
1013.9mb 75f 73f
1:54 5 6 mph 1014mb 75f 73f
1:48 6
mph
1014.1mb 75f 73f
1:42 5
mph
1014mb 75f 73f
1:36 5 6 mph 1014.1mb 75f 73f
1:30 5
mph
1014.1mb 75f 73f
1:24 5
mph
1014.1mb 75f 73f
1:18 5
mph
1014mb 75f 73f
1:12 2 3 mph 1014.1mb 75f 73f
1:06 3 5 mph 1014.1mb 75f 73f
1:00 3
mph
1014.2mb 75f 73f
12:54 2
mph
1014.3mb 75f 73f
12:48 2 3 mph 1014.3mb 75f 73f
12:42 3
mph
1014.3mb 75f 73f
12:36 2 3 mph 1014.3mb 75f 73f
12:30 2 3 mph 1014.4mb 75f 73f
12:24 2
mph
1014.4mb 75f 73f
12:18  -  2 mph 1014.5mb 75f 73f
12:12 2 3 mph 1014.6mb 75f 73f
12:06 3
mph
1014.6mb 75f 73f
12:00 1 2 mph 1014.7mb 75f 73f
mar. 07/28 11:54 2 3 mph 1014.7mb 75f 73f
11:48 1 2 mph 1014.6mb 75f 73f
11:42 1 2 mph 1014.6mb 75f 73f
11:36 2 5 mph 1014.5mb 75f 73f
11:30 5
mph
1014.5mb 75f 73f
11:24 5 6 mph 1014.6mb 74f 73f
11:18 5 6 mph 1014.6mb 74f 73f
11:12 2
mph
1014.6mb 74f 73f
11:06 2
mph
1014.6mb 74f 73f
11:00 2
mph
1014.6mb 74f 73f
10:54 3 5 mph 1014.6mb 74f 73f
10:48 3 5 mph 1014.5mb 74f 73f
10:42 5
mph
1014.5mb 74f 73f
10:36 3
mph
1014.5mb 74f 74f
10:30 3
mph
1014.5mb 74f 73f
10:24 1 2 mph 1014.5mb 75f 73f
10:18 2 3 mph 1014.6mb 75f 73f
10:12 3 5 mph 1014.6mb 75f 73f
10:06 3
mph
1014.7mb 75f 73f
10:00 2 3 mph 1014.6mb 75f 73f
9:54 2 3 mph 1014.6mb 75f 73f
9:48 3 6 mph 1014.6mb 75f 73f
9:42 6
mph
1014.7mb 75f 74f
9:36 6
mph
1014.6mb 75f 74f
9:30 5 6 mph 1014.6mb 75f 74f
9:24 5
mph
1014.5mb 75f 74f
9:18 5
mph
1014.6mb 75f 74f
9:12 3 5 mph 1014.6mb 75f 74f
9:06 5
mph
1014.5mb 75f 74f
9:00 2 3 mph 1014.6mb 75f 74f
8:54 3
mph
1014.5mb 75f 74f
8:48 2 3 mph 1014.5mb 75f 74f
8:42 3 5 mph 1014.4mb 75f 74f
8:36 6
mph
1014.3mb 75f 74f
8:30 2 5 mph 1014.1mb 75f 74f
8:24 5
mph
1014mb 75f 74f
8:18  -  2 mph 1014.1mb 75f 74f
8:12 1 2 mph 1014mb 75f 74f
8:06 2 5 mph 1014mb 75f 74f
8:00 5
mph
1014mb 75f 74f
7:54 2 3 mph 1013.9mb 75f 75f
7:48 3 5 mph 1013.8mb 75f 75f
7:42 5 7 mph 1013.8mb 75f 75f
7:36 7 8 mph 1013.8mb 75f 75f
7:30 7 8 mph 1013.9mb 75f 75f
7:24 7 9 mph 1013.9mb 75f 75f
7:18 8 10 mph 1013.9mb 75f 75f
7:12 10 11 mph 1013.9mb 75f 75f
7:06 8 9 mph 1013.9mb 75f 75f
7:00 5 6 mph 1014mb 75f 75f
6:54 6 7 mph 1014mb 75f 75f
6:48 3 7 mph 1014mb 75f 75f
6:42 5 6 mph 1014mb 75f 75f
6:36 6 10 mph 1014.1mb 75f 75f
6:30 9 10 mph 1014.1mb 75f 75f
6:24 10 14 mph 1013.9mb 75f 76f
6:18 10 11 mph 1013.7mb 75f 75f
6:12 9 11 mph 1013.5mb 75f 75f
6:06 6 9 mph 1013.6mb 75f 75f
6:00 8 11 mph 1013.5mb 75f 75f
5:54 11 14 mph 1013.5mb 75f 75f
5:48 14 17 mph 1013.5mb 75f 75f
5:42 16 18 mph 1013.5mb 75f 74f
5:36 17 21 mph 1013.5mb 75f 74f
5:30 20 23 mph 1013.6mb 75f 74f
5:24 21 23 mph 1013.7mb 75f 74f
5:18 22 23 mph 1013.7mb 75f 74f
5:12 17 20 mph 1013.7mb 75f 75f
5:06 20 21 mph 1013.4mb 75f 76f
5:00 13 15 mph 1013.5mb 75f 77f